Updated18/12/2017 07:05 
 

GeoURL
free counters
Scottish Weather Network UK Weather Network Cumulus Top Weather Sites

Peebles Weather - Nearby METAR Reports

Raw Data, Raw Data Expanded

Ignore low humidity and Dew Point values. Something wrong with the sensor.
Daytime temperatures are in direct sunlight so may be higher than official air temperature values.

Warnings and solar data not updating. Currently under investigation. (27th Oct 2016)

2017/12/18 06:50 EGPH 180650Z 26004KT 240V300 CAVOK 01/00 Q1025
-3.3°C 0.0 mm 0.0 mm 2.4 mm 0.0 mph 0.0 mph 1023.2 hPa 10% X-Ray Solar Flare Level
Planetary K-Index
Planetary K-Index History
Station Warn Rain Snow Flood Wind Ltng Heat Cold Glob Moon Temp Rain 1h Rain Mon Rain 24h Wind 10m Gust Pressure Hum Proton Levels

0.712 m New moon Uncomfortably Cold F0-S F:71 A:24 Kp:4 SSN:0

METAR Reports

 

EGPH - Edinburgh Airpor, United Kingdom
Distance from station: NNW 22mi, 36km
Updated: 18/12/2017 06:50
Clear
Clear
 Wind from W
Wind: W 5 mph , 7 km/h
Temperature: 1°C
Wind Chill: -2°C
Dew Point: 0°C
Humidity: 93%
Barometer: 1025 hPa
Summary: Clear
Visibility: greater than 7 miles , 10 km
2017/12/18 06:50 EGPH 180650Z 26004KT 240V300 CAVOK 01/00 Q1025
EGOM - Spadeadam, United Kingdom
Distance from station: SSE 49mi, 79km
Updated: 18/12/2017 05:50
NOT Current
Clear
Clear
 Wind from W
Wind: W 12 mph , 19 km/h
Temperature: 1°C
Wind Chill: -4°C
Dew Point: 1°C
Humidity: 100%
Barometer: 1024 hPa
Clouds: Clear
Visibility: 6 miles , 10 km
2017/12/18 05:50 EGOM 180550Z AUTO 28010KT 9999 NCD 01/01 Q1024
 
EGNC - Carlisle, United Kingdom
Distance from station: SSE 51mi, 82km
Updated: 17/12/2017 17:50
NOT Current
Mostly cloudy
Mostly cloudy
 Wind from W
Wind: W 5 mph , 7 km/h
Temperature: 4°C
Wind Chill: 2°C
Dew Point: 2°C
Humidity: 87%
Barometer: 1016 hPa
Clouds: Mostly cloudy
Visibility: 6 miles , 9 km
Cloud details: Few Clouds 244 m
Mostly cloudy 457 m
2017/12/17 17:50 EGNC 171750Z 27004KT 240V300 9000 FEW008 BKN015 04/02 Q1016
EGPF - Glasgow Airport, United Kingdom
Distance from station: WNW 51mi, 82km
Updated: 18/12/2017 06:50
Partly cloudy
Partly cloudy
 Wind from varies
Wind: varies 3 mph , 6 km/h
Temperature: -1°C
Dew Point: -1°C
Humidity: 100%
Barometer: 1026 hPa
Clouds: Partly cloudy
Visibility: 6 miles , 10 km
2017/12/18 06:50 EGPF 180650Z VRB03KT 9999 NSC M01/M01 Q1026
 
EGQL - Leuchars Raf, United Kingdom
Distance from station: NNE 53mi, 85km
Updated: 18/12/2017 06:50
Clear
Clear
 Wind from WSW
Wind: WSW 5 mph , 7 km/h
Temperature: 1°C
Wind Chill: -2°C
Dew Point: -1°C
Humidity: 87%
Barometer: 1024 hPa
Summary: Clear
Visibility: greater than 7 miles , 10 km
2017/12/18 06:50 EGQL 180650Z 25004KT CAVOK 01/M01 Q1024 BLU
EGPK - Prestwick(Civ/Na, United Kingdom
Distance from station: W 55mi, 89km
Updated: 18/12/2017 06:50
Few Clouds
Few Clouds
 Wind from ESE
Wind: ESE 2 mph , 4 km/h
Temperature: 3°C
Dew Point: 2°C
Humidity: 93%
Barometer: 1026 hPa
Clouds: Few Clouds
Visibility: 6 miles , 10 km
Cloud details: Few Clouds 762 m
2017/12/18 06:50 EGPK 180650Z 12002KT 9999 FEW025 03/02 Q1026
 
EGPN - Dundee/Riverside, United Kingdom
Distance from station: N 56mi, 90km
Updated: 18/12/2017 06:50
Clear
Clear
 Wind from WNW
Wind: WNW 3 mph , 6 km/h
Temperature: 1°C
Dew Point: 0°C
Humidity: 93%
Barometer: 1025 hPa
Summary: Clear
Visibility: greater than 7 miles , 10 km
2017/12/18 06:50 EGPN 180650Z 30003KT CAVOK 01/M00 Q1025
EGNT - Newcastle, United Kingdom
Distance from station: SE 72mi, 116km
Updated: 18/12/2017 06:50
Clear
Clear
 Wind from W
Wind: W 6 mph , 9 km/h
Temperature: 1°C
Wind Chill: -2°C
Dew Point: 1°C
Humidity: 100%
Barometer: 1026 hPa
Summary: Clear
Visibility: greater than 7 miles , 10 km
2017/12/18 06:50 EGNT 180650Z 26005KT CAVOK 01/01 Q1026
 
EGNV - Tees-Side, United Kingdom
Distance from station: SE 104mi, 168km
Updated: 18/12/2017 06:50
Clear
Clear
 Wind from varies
Wind: varies 3 mph , 6 km/h
Temperature: -2°C
Dew Point: -3°C
Humidity: 93%
Barometer: 1026 hPa
Summary: Clear
Visibility: greater than 7 miles , 10 km
2017/12/18 06:50 EGNV 180650Z VRB03KT CAVOK M02/M03 Q1026
EGPD - Aberdeen/Dyce, United Kingdom
Distance from station: NNE 114mi, 183km
Updated: 18/12/2017 06:50
Clear
Clear
 Wind from varies
Wind: varies 2 mph , 4 km/h
Temperature: 2°C
Dew Point: 0°C
Humidity: 87%
Barometer: 1024 hPa
Clouds: Clear
Visibility: 6 miles , 10 km
2017/12/18 06:50 EGPD 180650Z AUTO VRB02KT 9999 NCD 02/M00 Q1024 NOSIG
 
EGNS - Isle Of Man/Rona, United Kingdom
Distance from station: SSW 122mi, 197km
Updated: 18/12/2017 06:50
Few Clouds
Few Clouds
 Wind from NW
Wind: NW 2 mph , 4 km/h
Temperature: 6°C
Dew Point: 5°C
Humidity: 93%
Barometer: 1027 hPa
Clouds: Few Clouds
Visibility: 6 miles , 10 km
Cloud details: Few Clouds 610 m
2017/12/18 06:50 EGNS 180650Z 31002KT 9999 FEW020 06/05 Q1027 NOSIG
EGAC - Belfast Harbour, United Kingdom
Distance from station: WSW 128mi, 206km
Updated: 18/12/2017 06:50
Clear
Clear
 Wind from S
Wind: S 5 mph , 7 km/h
Temperature: 3°C
Wind Chill: 1°C
Dew Point: 3°C
Humidity: 100%
Barometer: 1027 hPa
Summary: Clear
Visibility: greater than 7 miles , 10 km
2017/12/18 06:50 EGAC 180650Z 17004KT CAVOK 03/03 Q1027
 
EGPE - Inverness/Dalcro, United Kingdom
Distance from station: NNW 134mi, 215km
Updated: 18/12/2017 06:50
Clear
Clear
 Wind from SW
Wind: SW 7 mph , 11 km/h
Temperature: 3°C
Wind Chill: 0°C
Dew Point: 0°C
Humidity: 81%
Barometer: 1023 hPa
Summary: Clear
Visibility: greater than 7 miles , 10 km
2017/12/18 06:50 EGPE 180650Z 23006KT CAVOK 03/00 Q1023
XHTML 1.1 | CSS